FW0810 Weather Reports


time (UTC)temp
C
wind
direction
speed
KPH
gust
KPH
rain 1hr
cm
rain 24hr
cm
rain mn
cm
humidity
%
barometer
mb
20260905194425 27 316 0.0 4.8 0.00 0.00 0.00 61 1022.1
20260905193925 27 301 0.0 4.8 0.00 0.00 0.00 60 1021.9
20260905193425 27 341 0.0 4.8 0.00 0.00 0.00 60 1022.0
20260905192926 27 295 0.0 4.8 0.00 0.00 0.00 59 1021.8
20260905192425 28 266 0.0 4.8 0.00 0.00 0.00 59 1021.8
20260905191924 28 308 0.0 6.4 0.00 0.00 0.00 58 1021.8
20260905191422 28 288 0.0 6.4 0.00 0.00 0.00 58 1021.8
20260905190922 28 278 0.0 1.6 0.00 0.00 0.00 57 1021.8
20260905190422 28 278 0.0 1.6 0.00 0.00 0.00 56 1021.7
20260905185919 28 278 0.0 1.6 0.00 0.00 0.00 55 1021.7
20260905185418 28 279 0.0 4.8 0.00 0.00 0.00 55 1021.6
20260905184915 28 278 0.0 4.8 0.00 0.00 0.00 54 1021.5
20260905184413 28 273 0.0 4.8 0.00 0.00 0.00 53 1021.5
20260905183911 29 284 0.0 8.0 0.00 0.00 0.00 53 1021.4
20260905183411 29 281 0.0 8.0 0.00 0.00 0.00 52 1021.2
20260905182913 29 283 0.0 8.0 0.00 0.00 0.00 51 1021.2
20260905181910 29 300 0.0 3.2 0.00 0.00 0.00 49 1021.0
20260905181408 30 309 0.0 1.6 0.00 0.00 0.00 48 1021.0
20260905180905 30 303 0.0 1.6 0.00 0.00 0.00 47 1020.9
20260905175905 30 281 0.0 1.6 0.00 0.00 0.00 46 1020.7
20260905175404 30 281 0.0 4.8 0.00 0.00 0.00 45 1020.7
20260905174903 31 285 1.6 16.1 0.00 0.00 0.00 44 1020.6
20260905174359 31 283 1.6 16.1 0.00 0.00 0.00 43 1020.6
20260905173859 31 290 0.0 6.4 0.00 0.00 0.00 42 1020.5
20260905173400 31 283 0.0 3.2 0.00 0.00 0.00 41 1020.7
20260905172859 31 289 0.0 4.8 0.00 0.00 0.00 40 1020.6
20260905172401 32 287 0.0 6.4 0.00 0.00 0.00 39 1020.5
20260905171857 32 276 0.0 6.4 0.00 0.00 0.00 39 1020.5
20260905171356 32 264 0.0 12.9 0.00 0.00 0.00 40 1020.6
20260905170906 32 285 1.6 12.9 0.00 0.00 0.00 39 1020.6
20260905170356 32 290 3.2 14.5 0.00 0.00 0.00 39 1020.6
20260905165856 33 259 1.6 17.7 0.00 0.00 0.00 40 1020.7
20260905165351 33 293 3.2 17.7 0.00 0.00 0.00 39 1020.7
20260905164849 33 288 3.2 14.5 0.00 0.00 0.00 39 1020.7
20260905164350 33 308 1.6 14.5 0.00 0.00 0.00 40 1020.7
20260905163850 33 297 1.6 9.7 0.00 0.00 0.00 40 1020.7
20260905162848 33 288 1.6 11.3 0.00 0.00 0.00 40 1020.6
20260905161851 34 292 1.6 12.9 0.00 0.00 0.00 40 1020.6
20260905161348 34 293 1.6 14.5 0.00 0.00 0.00 39 1020.4
20260905160347 35 286 0.0 6.4 0.00 0.00 0.00 39 1020.5
20260905155347 35 255 3.2 14.5 0.00 0.00 0.00 38 1020.5
20260905154349 35 255 1.6 14.5 0.00 0.00 0.00 38 1020.4
20260905153843 35 311 0.0 6.4 0.00 0.00 0.00 37 1020.3
20260905153343 35 196 1.6 11.3 0.00 0.00 0.00 37 1020.4
20260905152843 35 286 1.6 16.1 0.00 0.00 0.00 37 1020.3
20260905152343 35 287 1.6 16.1 0.00 0.00 0.00 36 1020.3
20260905151843 35 170 0.0 3.2 0.00 0.00 0.00 36 1020.3
20260905151345 35 125 3.2 17.7 0.00 0.00 0.00 35 1020.2
20260905150843 35 278 4.8 17.7 0.00 0.00 0.00 36 1020.3
20260905150341 35 274 3.2 12.9 0.00 0.00 0.00 35 1020.4
20260905145841 35 283 1.6 9.7 0.00 0.00 0.00 35 1020.3
20260905145343 35 165 1.6 14.5 0.00 0.00 0.00 35 1020.3
20260905143837 35 166 1.6 11.3 0.00 0.00 0.00 35 1020.3
20260905143341 35 269 1.6 11.3 0.00 0.00 0.00 34 1020.4
20260905142845 35 167 1.6 8.0 0.00 0.00 0.00 33 1020.3
20260905142337 35 148 0.0 8.0 0.00 0.00 0.00 34 1020.5
20260905141837 35 283 1.6 11.3 0.00 0.00 0.00 34 1020.6
20260905140838 36 197 3.2 16.1 0.00 0.00 0.00 34 1020.5
20260905140337 36 265 3.2 14.5 0.00 0.00 0.00 33 1020.4
20260905135838 35 264 1.6 12.9 0.00 0.00 0.00 33 1020.4
20260905134832 35 276 1.6 9.7 0.00 0.00 0.00 33 1020.6
20260905134334 35 263 1.6 9.7 0.00 0.00 0.00 34 1020.6
20260905133833 35 267 3.2 16.1 0.00 0.00 0.00 33 1020.8
20260905133333 35 205 3.2 16.1 0.00 0.00 0.00 33 1020.8
20260905132833 35 285 1.6 11.3 0.00 0.00 0.00 33 1020.8
20260905132336 35 275 1.6 16.1 0.00 0.00 0.00 32 1020.8
20260905131835 35 288 1.6 16.1 0.00 0.00 0.00 33 1020.8
20260905131331 35 228 3.2 14.5 0.00 0.00 0.00 33 1020.9
20260905130325 35 278 1.6 14.5 0.00 0.00 0.00 32 1021.1
20260905125825 35 295 1.6 12.9 0.00 0.00 0.00 31 1021.0
20260905125325 35 294 3.2 12.9 0.00 0.00 0.00 31 1021.1
20260905124325 35 207 0.0 9.7 0.00 0.00 0.00 33 1021.2
20260905123825 35 272 1.6 11.3 0.00 0.00 0.00 35 1021.3
20260905123322 35 194 1.6 11.3 0.00 0.00 0.00 34 1021.3
20260905122323 35 273 0.0 8.0 0.00 0.00 0.00 35 1021.4
20260905121823 35 296 0.0 6.4 0.00 0.00 0.00 35 1021.5
20260905121323 34 190 1.6 8.0 0.00 0.00 0.00 37 1021.6
20260905120824 34 275 3.2 12.9 0.00 0.00 0.00 38 1021.6
20260905120322 34 283 3.2 12.9 0.00 0.00 0.00 37 1021.6
20260905115823 35 300 1.6 11.3 0.00 0.00 0.00 37 1021.7
20260905115322 34 281 0.0 8.0 0.00 0.00 0.00 38 1021.7
20260905114816 34 156 1.6 16.1 0.00 0.00 0.00 38 1021.8
20260905113828 34 295 1.6 14.5 0.00 0.00 0.00 38 1021.7
20260905113315 34 294 1.6 14.5 0.00 0.00 0.00 38 1021.8
20260905112815 34 266 1.6 9.7 0.00 0.00 0.00 38 1021.8
20260905112312 34 276 1.6 9.7 0.00 0.00 0.00 38 1021.8
20260905111813 34 284 1.6 11.3 0.00 0.00 0.00 39 1021.9
20260905111312 33 312 1.6 11.3 0.00 0.00 0.00 38 1021.8
20260905110810 33 259 1.6 12.9 0.00 0.00 0.00 38 1021.8
20260905110311 33 284 3.2 12.9 0.00 0.00 0.00 37 1021.9
20260905105810 34 285 1.6 11.3 0.00 0.00 0.00 36 1021.8
20260905105311 34 350 0.0 8.0 0.00 0.00 0.00 36 1021.8
20260905104815 33 201 0.0 4.8 0.00 0.00 0.00 35 1021.8
20260905103807 33 286 3.2 9.7 0.00 0.00 0.00 36 1021.9
20260905102805 33 289 1.6 17.7 0.00 0.00 0.00 37 1021.9
20260905102306 32 296 3.2 12.9 0.00 0.00 0.00 38 1021.9
20260905101807 32 332 3.2 12.9 0.00 0.00 0.00 39 1021.9
20260905101305 32 269 1.6 12.9 0.00 0.00 0.00 39 1022.0
20260905100804 32 293 1.6 11.3 0.00 0.00 0.00 41 1022.0
20260905100305 32 283 3.2 16.1 0.00 0.00 0.00 41 1022.2
20260905095805 32 278 1.6 16.1 0.00 0.00 0.00 39 1022.2
20260905095306 32 239 1.6 14.5 0.00 0.00 0.00 42 1022.2
20260905094804 32 288 0.0 4.8 0.00 0.00 0.00 45 1022.3
20260905094304 31 126 0.0 1.6 0.00 0.00 0.00 46 1022.3
20260905093804 31 127 0.0 6.4 0.00 0.00 0.00 49 1022.3
20260905092805 30 119 0.0 6.4 0.00 0.00 0.00 51 1022.3
20260905092306 30 117 0.0 4.8 0.00 0.00 0.00 52 1022.3
20260905091802 30 118 1.6 4.8 0.00 0.00 0.00 52 1022.2
20260905091302 29 115 0.0 3.2 0.00 0.00 0.00 53 1022.2
20260905090800 29 88 0.0 6.4 0.00 0.00 0.00 53 1022.2
20260905090300 29 85 0.0 6.4 0.00 0.00 0.00 54 1022.2
20260905085758 28 111 0.0 1.6 0.00 0.00 0.00 54 1022.1
20260905085258 28 110 0.0 3.2 0.00 0.00 0.00 54 1022.2
20260905084758 28 110 0.0 8.0 0.00 0.00 0.00 55 1022.2
20260905084252 28 110 0.0 8.0 0.00 0.00 0.00 56 1022.3
20260905083745 27 115 0.0 4.8 0.00 0.00 0.00 56 1022.3
20260905083239 27 112 0.0 3.2 0.00 0.00 0.00 57 1022.2
20260905082736 27 111 0.0 3.2 0.00 0.00 0.00 57 1022.3
20260905082226 27 108 0.0 3.2 0.00 0.00 0.00 60 1022.3
20260905081214 26 139 0.0 3.2 0.00 0.00 0.00 60 1022.4
20260905080713 26 107 0.0 1.6 0.00 0.00 0.00 62 1022.4
20260905075658 25 98 1.6 6.4 0.00 0.00 0.00 62 1022.5
20260905075153 25 108 1.6 6.4 0.00 0.00 0.00 63 1022.6
20260905074138 25 139 0.0 4.8 0.00 0.00 0.00 64 1022.6
20260905073632 25 144 0.0 4.8 0.00 0.00 0.00 65 1022.7
20260905072114 24 141 0.0 4.8 0.00 0.00 0.00 66 1022.6
20260905071608 24 158 0.0 4.8 0.00 0.00 0.00 67 1022.5
20260905070613 23 221 0.0 1.6 0.00 0.00 0.00 69 1022.4
20260905070107 23 221 0.0 0.0 0.00 0.00 0.00 69 1022.3
20260905065559 23 257 0.0 0.0 0.00 0.00 0.00 71 1022.3
20260905064055 22 262 0.0 0.0 0.00 0.00 0.00 72 1022.4
20260905063553 22 262 0.0 0.0 0.00 0.00 0.00 73 1022.4
20260905063050 21 271 0.0 0.0 0.00 0.00 0.00 76 1022.5
20260905062046 20 271 0.0 0.0 0.00 0.00 0.00 80 1022.4
20260905061547 19 271 0.0 0.0 0.00 0.00 0.00 80 1022.5
20260905061046 19 271 0.0 0.0 0.00 0.00 0.00 82 1022.6
20260905060546 18 271 0.0 0.0 0.00 0.00 0.00 82 1022.7
20260905055547 18 270 0.0 0.0 0.00 0.00 0.00 83 1022.6
20260905055046 18 269 0.0 0.0 0.00 0.00 0.00 84 1022.5
20260905054545 17 269 0.0 0.0 0.00 0.00 0.00 85 1022.5
20260905054046 17 269 0.0 0.0 0.00 0.00 0.00 84 1022.6
20260905053542 17 269 0.0 1.6 0.00 0.00 0.00 85 1022.7
20260905051036 16 269 0.0 0.0 0.00 0.00 0.00 86 1022.5
20260905050037 16 269 0.0 0.0 0.00 0.00 0.00 85 1022.4
20260905045536 16 269 0.0 0.0 0.00 0.00 0.00 84 1022.5
20260905045036 16 269 0.0 0.0 0.00 0.00 0.00 85 1022.5
20260905044035 16 269 0.0 0.0 0.00 0.00 0.00 84 1022.4
20260905043533 16 269 0.0 0.0 0.00 0.00 0.00 84 1022.3
20260905043032 17 269 0.0 0.0 0.00 0.00 0.00 84 1022.3
20260905042532 17 269 0.0 0.0 0.00 0.00 0.00 84 1022.2
20260905041533 16 269 0.0 1.6 0.00 0.00 0.00 84 1022.1
20260905041033 16 269 0.0 1.6 0.00 0.00 0.00 84 1022.0
20260905040532 17 269 0.0 0.0 0.00 0.00 0.00 84 1022.0
20260905040028 17 271 0.0 1.6 0.00 0.00 0.00 84 1022.1
20260905035528 17 271 0.0 1.6 0.00 0.00 0.00 84 1022.1
20260905035029 17 271 0.0 0.0 0.00 0.00 0.00 84 1021.8
20260905033033 17 271 0.0 0.0 0.00 0.00 0.00 83 1022.0
20260905032528 17 271 0.0 0.0 0.00 0.00 0.00 83 1021.9
20260905032027 17 271 0.0 0.0 0.00 0.00 0.00 83 1021.8
20260905031521 17 271 0.0 0.0 0.00 0.00 0.00 83 1021.9
20260905031016 17 274 0.0 0.0 0.00 0.00 0.00 82 1021.9
20260905030016 17 274 0.0 0.0 0.00 0.00 0.00 82 1021.9
20260905025457 17 274 0.0 0.0 0.00 0.00 0.00 82 1021.9
20260905024953 17 274 0.0 0.0 0.00 0.00 0.00 82 1022.0
20260905024445 17 274 0.0 0.0 0.00 0.00 0.00 82 1022.0
20260905023432 17 273 0.0 0.0 0.00 0.00 0.00 81 1022.0
20260905022928 18 272 0.0 0.0 0.00 0.00 0.00 81 1022.0
20260905021916 18 269 0.0 0.0 0.00 0.00 0.00 81 1022.1
20260905021411 18 269 0.0 0.0 0.00 0.00 0.00 81 1022.1
20260905020902 18 269 0.0 0.0 0.00 0.00 0.00 81 1022.2
20260905020400 18 269 0.0 0.0 0.00 0.00 0.00 81 1022.2
20260905015852 18 269 0.0 0.0 0.00 0.00 0.00 81 1022.3
20260905015345 18 269 0.0 0.0 0.00 0.00 0.00 81 1022.4
20260905014845 18 269 0.0 6.4 0.00 0.00 0.00 80 1022.3
20260905014341 18 269 0.0 6.4 0.00 0.00 0.00 80 1022.4
20260905013842 18 266 0.0 0.0 0.00 0.00 0.00 79 1022.4
20260905013343 18 264 0.0 6.4 0.00 0.00 0.00 79 1022.3
20260905012839 18 275 0.0 6.4 0.00 0.00 0.00 79 1022.3
20260905012339 18 269 0.0 3.2 0.00 0.00 0.00 78 1022.2
20260905011836 18 264 0.0 0.0 0.00 0.00 0.00 78 1022.3
20260905011333 18 264 0.0 0.0 0.00 0.00 0.00 78 1022.2
20260905010330 19 264 0.0 0.0 0.00 0.00 0.00 78 1022.2
20260905005827 19 264 0.0 0.0 0.00 0.00 0.00 77 1022.3
20260905005330 19 264 0.0 0.0 0.00 0.00 0.00 77 1022.3
20260905004827 19 264 0.0 0.0 0.00 0.00 0.00 77 1022.3
20260905004327 19 264 0.0 0.0 0.00 0.00 0.00 77 1022.4
20260905002825 20 264 0.0 0.0 0.00 0.00 0.00 76 1022.4
20260905002325 20 264 0.0 1.6 0.00 0.00 0.00 77 1022.5
20260905001827 20 264 0.0 3.2 0.00 0.00 0.00 77 1022.5
20260905000822 19 266 0.0 6.4 0.00 0.00 0.00 76 1022.4
20260904235822 20 273 1.6 8.0 0.00 0.00 0.00 75 1022.6
20260904235322 20 264 0.0 8.0 0.00 0.00 0.00 74 1022.7
20260904233315 20 270 0.0 1.6 0.00 0.00 0.00 73 1022.6
20260904232313 20 269 0.0 0.0 0.00 0.00 0.00 73 1022.7
20260904230806 21 274 0.0 3.2 0.00 0.00 0.00 71 1022.8
20260904230318 21 274 0.0 3.2 0.00 0.00 0.00 71 1022.9
20260904225805 21 272 0.0 0.0 0.00 0.00 0.00 70 1023.0
20260904225306 21 272 0.0 0.0 0.00 0.00 0.00 69 1023.0
20260904224301 21 272 0.0 0.0 0.00 0.00 0.00 68 1022.8
20260904223802 22 272 0.0 0.0 0.00 0.00 0.00 68 1022.8
20260904223303 22 271 0.0 0.0 0.00 0.00 0.00 68 1022.8
20260904222801 22 271 0.0 4.8 0.00 0.00 0.00 68 1022.8
20260904222254 22 271 0.0 4.8 0.00 0.00 0.00 68 1022.8
20260904221749 22 273 0.0 1.6 0.00 0.00 0.00 67 1022.9
20260904220740 22 283 0.0 6.4 0.00 0.00 0.00 66 1022.8
20260904220231 22 274 0.0 6.4 0.00 0.00 0.00 65 1022.7
20260904215728 22 269 0.0 0.0 0.00 0.00 0.00 65 1022.8
20260904215218 22 269 0.0 3.2 0.00 0.00 0.00 65 1022.7
20260904214713 22 269 0.0 3.2 0.00 0.00 0.00 65 1022.7
20260904214206 22 271 0.0 0.0 0.00 0.00 0.00 65 1022.7
20260904213700 22 271 0.0 4.8 0.00 0.00 0.00 65 1022.5
20260904213156 23 271 0.0 4.8 0.00 0.00 0.00 64 1022.6
20260904212649 23 269 0.0 3.2 0.00 0.00 0.00 64 1022.5
20260904212145 23 276 0.0 0.0 0.00 0.00 0.00 63 1022.5
20260904211640 23 276 0.0 3.2 0.00 0.00 0.00 63 1022.5
20260904211131 23 278 0.0 3.2 0.00 0.00 0.00 62 1022.5
20260904210640 23 275 0.0 3.2 0.00 0.00 0.00 62 1022.5
20260904210121 23 285 0.0 3.2 0.00 0.00 0.00 61 1022.5
20260904205618 24 276 0.0 0.0 0.00 0.00 0.00 60 1022.5
20260904205118 24 276 0.0 0.0 0.00 0.00 0.00 60 1022.5
20260904204616 24 276 0.0 0.0 0.00 0.00 0.00 59 1022.5
20260904204113 24 276 0.0 0.0 0.00 0.00 0.00 59 1022.5
20260904203113 24 276 0.0 0.0 0.00 0.00 0.00 59 1022.5
20260904202614 24 276 0.0 1.6 0.00 0.00 0.00 59 1022.4
20260904201612 25 282 0.0 3.2 0.00 0.00 0.00 58 1022.4
20260904200610 25 271 0.0 3.2 0.00 0.00 0.00 56 1022.3
20260904195609 25 271 0.0 4.8 0.00 0.00 0.00 56 1022.3
20260904195105 25 274 0.0 4.8 0.00 0.00 0.00 56 1022.3